createdAt,value
2022-11-01T00:02:14.660Z,97691.16
2022-11-01T00:04:41.412Z,97689.63
2022-11-01T00:07:08.138Z,97693.41
2022-11-01T00:09:34.832Z,97696.22
2022-11-01T00:12:01.631Z,97690.31
2022-11-01T00:14:28.329Z,97694.47
2022-11-01T00:16:55.505Z,97682.31
2022-11-01T00:19:22.497Z,97685.63
2022-11-01T00:21:49.279Z,97678.75
2022-11-01T00:24:16.012Z,97678.75
2022-11-01T00:26:42.896Z,97676.28
2022-11-01T00:29:11.400Z,97684.41
2022-11-01T00:31:38.146Z,97682.75
2022-11-01T00:34:06.294Z,97680.16
2022-11-01T00:36:34.967Z,97670.59
2022-11-01T00:39:03.161Z,97667.03
2022-11-01T00:41:29.889Z,97674.75
2022-11-01T00:43:56.635Z,97689.28
2022-11-01T00:46:23.331Z,97698.13
2022-11-01T00:48:50.095Z,97704.22
2022-11-01T00:51:16.851Z,97690.53
2022-11-01T00:53:43.645Z,97693.25
2022-11-01T00:56:10.352Z,97696.91
2022-11-01T00:58:37.075Z,97703.97
2022-11-01T01:01:04.030Z,97690.47
2022-11-01T01:03:30.985Z,97702.75
2022-11-01T01:05:57.959Z,97693.44
2022-11-01T01:08:27.104Z,97696.13
2022-11-01T01:10:54.224Z,97701.56
2022-11-01T01:13:21.856Z,97699.91
2022-11-01T01:15:48.750Z,97699.91
2022-11-01T01:18:16.051Z,97696.56
2022-11-01T01:20:42.802Z,97693.25
2022-11-01T01:23:09.614Z,97704.59
2022-11-01T01:25:42.633Z,97695.38
2022-11-01T01:28:10.025Z,97700.44
2022-11-01T01:30:41.155Z,97713.53
2022-11-01T01:33:09.390Z,97715.31
2022-11-01T01:35:38.378Z,97716.94
2022-11-01T01:38:06.101Z,97710.22
2022-11-01T01:40:34.064Z,97712.00
2022-11-01T01:43:00.827Z,97722.38
2022-11-01T01:45:41.012Z,97722.25
2022-11-01T01:48:26.979Z,97712.81
2022-11-01T01:51:00.625Z,97719.66
2022-11-01T01:53:34.838Z,97723.09
2022-11-01T01:56:12.060Z,97712.59
2022-11-01T01:59:08.437Z,97709.78
2022-11-01T02:01:39.593Z,97700.09
2022-11-01T02:04:15.372Z,97719.44
2022-11-01T02:06:42.437Z,97692.44
2022-11-01T02:09:10.949Z,97688.06
2022-11-01T02:11:37.670Z,97689.72
2022-11-01T02:14:04.648Z,97678.75
2022-11-01T02:17:16.465Z,97667.88
2022-11-01T02:20:32.652Z,97681.56
2022-11-01T02:23:26.270Z,97681.56
2022-11-01T02:26:26.730Z,97690.06
2022-11-01T02:29:29.374Z,97689.72
2022-11-01T02:32:22.332Z,97685.34
2022-11-01T02:34:56.713Z,97687.88
2022-11-01T02:38:07.590Z,97692.22
2022-11-01T02:41:03.750Z,97698.25
2022-11-01T02:43:43.654Z,97696.38
2022-11-01T02:46:30.104Z,97704.88
2022-11-01T02:48:58.405Z,97702.97
2022-11-01T02:51:27.911Z,97701.31
2022-11-01T02:53:54.594Z,97699.44
2022-11-01T02:56:22.577Z,97706.28
2022-11-01T02:58:51.923Z,97709.81
2022-11-01T03:01:27.863Z,97708.88
2022-11-01T03:03:57.988Z,97716.66
2022-11-01T03:06:35.758Z,97711.59
2022-11-01T03:09:09.962Z,97716.66
2022-11-01T03:11:52.412Z,97702.03
2022-11-01T03:14:35.085Z,97709.81
2022-11-01T03:17:33.468Z,97704.53
2022-11-01T03:20:47.267Z,97701.09
2022-11-01T03:23:25.774Z,97704.53
2022-11-01T03:25:57.077Z,97707.13
2022-11-01T03:28:35.820Z,97710.66
2022-11-01T03:31:11.517Z,97721.84
2022-11-01T03:33:47.721Z,97721.84
2022-11-01T03:36:19.736Z,97716.66
2022-11-01T03:39:08.532Z,97713.47
2022-11-01T03:41:44.796Z,97708.16
2022-11-01T03:44:13.519Z,97705.56
2022-11-01T03:46:42.274Z,97718.56
2022-11-01T03:49:09.277Z,97716.78
2022-11-01T03:51:36.070Z,97709.00
2022-11-01T03:54:02.817Z,97713.13
2022-11-01T03:56:29.559Z,97715.00
2022-11-01T03:58:56.281Z,97719.50
2022-11-01T04:01:23.155Z,97721.25
2022-11-01T04:03:49.955Z,97718.78
2022-11-01T04:06:16.672Z,97720.31
2022-11-01T04:08:43.393Z,97722.09
2022-11-01T04:11:10.138Z,97728.09
2022-11-01T04:13:37.000Z,97729.03
2022-11-01T04:16:22.536Z,97741.31
2022-11-01T04:19:07.643Z,97743.91
2022-11-01T04:21:54.698Z,97749.22
2022-11-01T04:24:21.528Z,97750.16
2022-11-01T04:26:48.327Z,97750.16
2022-11-01T04:29:15.034Z,97763.00
2022-11-01T04:31:41.768Z,97762.19
2022-11-01T04:34:08.749Z,97763.84
2022-11-01T04:36:38.334Z,97761.13
2022-11-01T04:39:05.117Z,97755.81
2022-11-01T04:41:31.871Z,97757.47
2022-11-01T04:43:59.553Z,97739.09
2022-11-01T04:46:30.212Z,97752.78
2022-11-01T04:48:56.966Z,97759.53
2022-11-01T04:51:23.731Z,97755.06
2022-11-01T04:53:50.464Z,97760.84
2022-11-01T04:56:17.186Z,97759.91
2022-11-01T04:58:46.277Z,97757.19
2022-11-01T05:01:15.233Z,97768.22
2022-11-01T05:03:42.943Z,97770.59
2022-11-01T05:06:10.037Z,97770.34
2022-11-01T05:08:36.793Z,97771.19
2022-11-01T05:11:03.527Z,97774.47
2022-11-01T05:13:30.527Z,97773.44
2022-11-01T05:18:44.311Z,97787.88
2022-11-01T05:21:11.898Z,97785.88
2022-11-01T05:23:38.701Z,97788.59
2022-11-01T05:26:05.691Z,97786.69
2022-11-01T05:28:32.436Z,97810.06
2022-11-01T05:30:59.326Z,97806.66
2022-11-01T05:33:26.069Z,97811.84
2022-11-01T05:35:52.824Z,97814.31
2022-11-01T05:38:19.783Z,97814.31
2022-11-01T05:40:46.472Z,97812.44
2022-11-01T05:43:14.488Z,97811.59
2022-11-01T05:45:41.403Z,97830.84
2022-11-01T05:48:08.330Z,97835.09
2022-11-01T05:50:35.064Z,97844.66
2022-11-01T05:53:10.044Z,97847.16
2022-11-01T05:55:37.172Z,97850.69
2022-11-01T05:58:04.328Z,97842.88
2022-11-01T06:00:32.175Z,97839.47
2022-11-01T06:02:59.471Z,97840.19
2022-11-01T06:05:28.006Z,97841.84
2022-11-01T06:07:54.793Z,97848.50
2022-11-01T06:10:21.847Z,97852.50
2022-11-01T06:12:48.985Z,97865.19
2022-11-01T06:15:15.775Z,97867.56
2022-11-01T06:17:42.495Z,97864.75
2022-11-01T06:20:12.549Z,97880.13
2022-11-01T06:22:39.830Z,97885.91
2022-11-01T06:25:08.131Z,97888.28
2022-11-01T06:27:34.856Z,97886.31
2022-11-01T06:30:01.609Z,97896.47
2022-11-01T06:32:28.369Z,97907.59
2022-11-01T06:34:55.217Z,97901.22
2022-11-01T06:37:22.050Z,97906.09
2022-11-01T06:39:48.749Z,97897.25
2022-11-01T06:42:15.464Z,97884.03
2022-11-01T06:44:42.191Z,97885.34
2022-11-01T06:47:08.985Z,97870.13
2022-11-01T06:49:35.690Z,97877.25
2022-11-01T06:52:03.154Z,97884.13
2022-11-01T06:54:29.912Z,97890.41
2022-11-01T06:56:57.201Z,97889.59
2022-11-01T06:59:24.894Z,97896.72
2022-11-01T07:01:54.804Z,97898.63
2022-11-01T07:04:22.162Z,97904.78
2022-11-01T07:06:49.533Z,97918.88
2022-11-01T07:09:16.363Z,97919.84
2022-11-01T07:11:43.073Z,97923.28
2022-11-01T07:14:10.115Z,97918.81
2022-11-01T07:16:38.925Z,97919.97
2022-11-01T07:19:05.729Z,97922.25
2022-11-01T07:21:32.446Z,97932.41
2022-11-01T07:23:59.288Z,97934.91
2022-11-01T07:26:26.005Z,97939.03
2022-11-01T07:28:52.719Z,97938.91
2022-11-01T07:31:19.425Z,97941.31
2022-11-01T07:33:46.195Z,97939.03
2022-11-01T07:36:12.896Z,97942.13
2022-11-01T07:38:39.620Z,97944.13
2022-11-01T07:41:06.543Z,97948.59
2022-11-01T07:43:35.585Z,97946.44
2022-11-01T07:46:04.126Z,97948.34
2022-11-01T07:48:30.831Z,97944.28
2022-11-01T07:50:57.643Z,97936.69
2022-11-01T07:53:25.152Z,97952.44
2022-11-01T07:55:52.210Z,97963.03
2022-11-01T07:58:18.978Z,97966.56
2022-11-01T08:00:46.140Z,97977.81
2022-11-01T08:03:18.127Z,97979.72
2022-11-01T08:05:47.086Z,97990.94
2022-11-01T08:08:16.115Z,97988.28
2022-11-01T08:10:43.317Z,97996.16
2022-11-01T08:13:24.742Z,97982.59
2022-11-01T08:15:53.261Z,97982.22
2022-11-01T08:18:24.086Z,97991.34
2022-11-01T08:20:51.661Z,97982.28
2022-11-01T08:23:19.046Z,97992.47
2022-11-01T08:25:46.198Z,98001.69
2022-11-01T08:28:16.771Z,98005.59
2022-11-01T08:30:46.513Z,98016.34
2022-11-01T08:33:13.359Z,98012.84
2022-11-01T08:35:40.155Z,98011.41
2022-11-01T08:38:07.037Z,98001.06
2022-11-01T08:40:33.991Z,98005.13
2022-11-01T08:43:01.484Z,98004.63
2022-11-01T08:45:29.026Z,98013.06
2022-11-01T08:48:00.831Z,98015.31
2022-11-01T08:50:28.325Z,98008.44
2022-11-01T08:52:55.337Z,98008.47
2022-11-01T08:55:22.865Z,98008.31
2022-11-01T08:57:50.046Z,98017.97
2022-11-01T09:00:17.532Z,98020.59
2022-11-01T09:02:44.273Z,98027.19
2022-11-01T09:05:11.090Z,98019.22
2022-11-01T09:07:38.580Z,98009.59
2022-11-01T09:10:06.837Z,98009.72
2022-11-01T09:12:33.872Z,98013.72
2022-11-01T09:15:00.688Z,98008.06
2022-11-01T09:17:27.811Z,98013.63
2022-11-01T09:19:54.625Z,98016.22
2022-11-01T09:22:22.115Z,98014.56
2022-11-01T09:24:48.903Z,98008.91
2022-11-01T09:27:16.260Z,98000.44
2022-11-01T09:29:45.330Z,98005.78
2022-11-01T09:32:15.058Z,98003.53
2022-11-01T09:34:41.820Z,98004.03
2022-11-01T09:37:08.531Z,98003.88
2022-11-01T09:39:35.249Z,98007.00
2022-11-01T09:42:22.801Z,98008.84
2022-11-01T09:44:55.344Z,98004.00
2022-11-01T09:47:29.236Z,98000.13
2022-11-01T09:50:27.112Z,98003.13
2022-11-01T09:52:55.952Z,98009.38
2022-11-01T09:55:39.009Z,98014.00
2022-11-01T09:58:56.487Z,98027.94
2022-11-01T10:01:44.309Z,98026.72
2022-11-01T10:04:46.015Z,98027.53
2022-11-01T10:07:55.739Z,98035.53
2022-11-01T10:10:43.619Z,98045.00
2022-11-01T10:13:51.262Z,98041.78
2022-11-01T10:16:34.792Z,98046.56
2022-11-01T10:19:08.148Z,98052.91
2022-11-01T10:21:44.570Z,98039.25
2022-11-01T10:24:31.809Z,98050.91
2022-11-01T10:27:18.540Z,98046.09
2022-11-01T10:29:57.982Z,98048.44
2022-11-01T10:32:54.552Z,98045.44
2022-11-01T10:35:37.896Z,98040.78
2022-11-01T10:38:41.897Z,98046.63
2022-11-01T10:41:36.337Z,98033.81
2022-11-01T10:44:11.856Z,98036.75
2022-11-01T10:46:45.348Z,98030.81
2022-11-01T10:49:35.031Z,98033.13
2022-11-01T10:52:21.642Z,98029.22
2022-11-01T10:54:52.600Z,98026.00
2022-11-01T10:57:41.693Z,98029.66
2022-11-01T11:00:17.525Z,98029.06
2022-11-01T11:03:17.840Z,98026.66
2022-11-01T11:05:46.806Z,98023.94
2022-11-01T11:08:17.914Z,98031.03
2022-11-01T11:10:45.841Z,98023.38
2022-11-01T11:13:19.541Z,98018.47
2022-11-01T11:16:05.300Z,98026.91
2022-11-01T11:18:42.344Z,98027.16
2022-11-01T11:21:13.825Z,98015.09
2022-11-01T11:23:45.882Z,98023.41
2022-11-01T11:26:18.128Z,98017.22
2022-11-01T11:28:53.321Z,98013.69
2022-11-01T11:31:31.158Z,98017.03
2022-11-01T11:34:37.943Z,98009.38
2022-11-01T11:37:14.291Z,98010.41
2022-11-01T11:40:02.045Z,98006.66
2022-11-01T11:42:30.349Z,98000.03
2022-11-01T11:45:19.675Z,97997.38
2022-11-01T11:47:49.713Z,97998.53
2022-11-01T11:50:19.336Z,97991.78
2022-11-01T11:52:49.522Z,97992.47
2022-11-01T11:55:39.327Z,97996.09
2022-11-01T11:58:25.683Z,97987.53
2022-11-01T12:01:15.664Z,97983.06
2022-11-01T12:04:06.063Z,97989.81
2022-11-01T12:06:42.805Z,97993.63
2022-11-01T12:09:46.498Z,97986.19
2022-11-01T12:12:27.944Z,97985.03
2022-11-01T12:14:56.868Z,97980.88
2022-11-01T12:17:23.473Z,97992.41
2022-11-01T12:20:16.362Z,97994.53
2022-11-01T12:23:07.947Z,97993.09
2022-11-01T12:25:37.314Z,97992.75
2022-11-01T12:28:45.475Z,98002.00
2022-11-01T12:31:19.326Z,98000.00
2022-11-01T12:33:57.978Z,97989.44
2022-11-01T12:36:57.977Z,97987.00
2022-11-01T12:40:07.662Z,97987.00
2022-11-01T12:42:46.217Z,97994.75
2022-11-01T12:45:39.846Z,98000.03
2022-11-01T12:48:13.826Z,97993.09
2022-11-01T12:50:58.378Z,97992.56
2022-11-01T12:53:31.251Z,97993.41
2022-11-01T12:55:59.086Z,97997.22
2022-11-01T12:58:28.900Z,97999.50
2022-11-01T13:01:19.912Z,97998.34
2022-11-01T13:04:10.003Z,97994.41
2022-11-01T13:07:00.586Z,97997.34
2022-11-01T13:10:07.214Z,98015.91
2022-11-01T13:13:16.001Z,98013.22
2022-11-01T13:16:04.527Z,98010.34
2022-11-01T13:18:54.085Z,98011.34
2022-11-01T13:21:45.708Z,98007.50
2022-11-01T13:24:45.787Z,98016.22
2022-11-01T13:27:35.956Z,98018.84
2022-11-01T13:30:11.186Z,98011.28
2022-11-01T13:32:59.170Z,98017.06
2022-11-01T13:36:11.181Z,98015.41
2022-11-01T13:39:04.881Z,98011.59
2022-11-01T13:42:06.752Z,98018.28
2022-11-01T13:44:45.694Z,98013.44
2022-11-01T13:48:02.663Z,98018.28
2022-11-01T13:50:43.700Z,98021.34
2022-11-01T13:53:38.984Z,98013.34
2022-11-01T13:56:26.083Z,98019.09
2022-11-01T13:58:52.972Z,98015.66
2022-11-01T14:01:38.702Z,98016.63
2022-11-01T14:04:34.545Z,98021.91
2022-11-01T14:07:14.341Z,98017.63
2022-11-01T14:09:47.525Z,98023.47
2022-11-01T14:12:34.055Z,98035.31
2022-11-01T14:15:16.191Z,98022.16
2022-11-01T14:17:57.611Z,98023.72
2022-11-01T14:20:29.812Z,98038.50
2022-11-01T14:22:58.613Z,98031.34
2022-11-01T14:25:32.825Z,98034.75
2022-11-01T14:28:17.579Z,98034.69
2022-11-01T14:30:53.777Z,98027.38
2022-11-01T14:33:22.305Z,98028.69
2022-11-01T14:35:58.916Z,98030.13
2022-11-01T14:38:43.019Z,98033.88
2022-11-01T14:41:14.189Z,98038.44
2022-11-01T14:43:55.751Z,98036.13
2022-11-01T14:46:29.321Z,98042.38
2022-11-01T14:49:14.577Z,98035.59
2022-11-01T14:52:08.916Z,98035.75
2022-11-01T14:55:13.872Z,98041.16
2022-11-01T14:57:40.834Z,98047.09
2022-11-01T15:00:28.919Z,98036.59
2022-11-01T15:05:32.166Z,98050.56
2022-11-01T15:08:00.016Z,98036.75
2022-11-01T15:10:27.825Z,98037.72
2022-11-01T15:12:59.849Z,98045.88
2022-11-01T15:15:32.176Z,98046.16
2022-11-01T15:18:16.159Z,98037.59
2022-11-01T15:20:50.094Z,98044.81
2022-11-01T15:23:34.515Z,98050.88
2022-11-01T15:26:08.776Z,98048.94
2022-11-01T15:28:46.743Z,98048.94
2022-11-01T15:31:13.587Z,98055.69
2022-11-01T15:34:19.772Z,98061.56
2022-11-01T15:36:46.506Z,98058.16
2022-11-01T15:39:31.248Z,98062.13
2022-11-01T15:41:58.101Z,98055.41
2022-11-01T15:44:30.514Z,98061.97
2022-11-01T15:47:03.672Z,98071.03
2022-11-01T15:49:45.397Z,98068.06
2022-11-01T15:52:26.708Z,98072.25
2022-11-01T15:55:30.049Z,98071.28
2022-11-01T15:58:06.823Z,98071.91
2022-11-01T16:00:41.554Z,98073.00
2022-11-01T16:03:28.131Z,98069.03
2022-11-01T16:05:59.932Z,98080.34
2022-11-01T16:08:37.971Z,98072.63
2022-11-01T16:11:05.300Z,98085.75
2022-11-01T16:13:35.163Z,98089.19
2022-11-01T16:16:06.665Z,98093.69
2022-11-01T16:18:36.239Z,98097.38
2022-11-01T16:21:24.566Z,98101.09
2022-11-01T16:24:11.452Z,98108.06
2022-11-01T16:27:03.428Z,98096.06
2022-11-01T16:29:51.246Z,98105.41
2022-11-01T16:32:33.726Z,98107.16
2022-11-01T16:35:33.276Z,98113.31
2022-11-01T16:38:00.334Z,98117.56
2022-11-01T16:40:32.358Z,98128.94
2022-11-01T16:42:59.798Z,98128.59
2022-11-01T16:45:26.548Z,98125.81
2022-11-01T16:47:58.096Z,98129.03
2022-11-01T16:50:25.301Z,98128.59
2022-11-01T16:52:52.619Z,98138.72
2022-11-01T16:55:21.442Z,98135.94
2022-11-01T16:57:51.200Z,98139.88
2022-11-01T17:00:17.957Z,98145.03
2022-11-01T17:02:44.849Z,98153.38
2022-11-01T17:05:20.821Z,98157.31
2022-11-01T17:07:51.079Z,98158.66
2022-11-01T17:10:22.136Z,98170.31
2022-11-01T17:12:49.035Z,98162.81
2022-11-01T17:15:16.567Z,98158.81
2022-11-01T17:17:47.223Z,98169.66
2022-11-01T17:20:23.530Z,98172.72
2022-11-01T17:22:53.965Z,98182.72
2022-11-01T17:25:25.702Z,98179.63
2022-11-01T17:27:52.464Z,98177.28
2022-11-01T17:30:19.879Z,98177.53
2022-11-01T17:32:47.016Z,98180.41
2022-11-01T17:35:15.339Z,98178.97
2022-11-01T17:37:42.939Z,98180.03
2022-11-01T17:40:20.083Z,98175.19
2022-11-01T17:42:47.103Z,98184.22
2022-11-01T17:45:14.079Z,98181.81
2022-11-01T17:47:40.948Z,98188.25
2022-11-01T17:50:15.546Z,98184.31
2022-11-01T17:52:43.214Z,98191.53
2022-11-01T17:55:11.666Z,98187.28
2022-11-01T17:57:40.755Z,98189.16
2022-11-01T18:00:08.733Z,98188.47
2022-11-01T18:02:35.632Z,98201.75
2022-11-01T18:05:02.400Z,98200.94
2022-11-01T18:07:41.493Z,98204.38
2022-11-01T18:10:19.563Z,98207.69
2022-11-01T18:13:12.033Z,98211.00
2022-11-01T18:15:50.697Z,98200.69
2022-11-01T18:19:05.215Z,98206.34
2022-11-01T18:21:36.305Z,98208.38
2022-11-01T18:24:15.032Z,98210.16
2022-11-01T18:26:47.862Z,98216.34
2022-11-01T18:29:23.455Z,98220.47
2022-11-01T18:32:05.079Z,98210.03
2022-11-01T18:34:59.911Z,98219.78
2022-11-01T18:38:07.687Z,98205.56
2022-11-01T18:40:56.575Z,98209.00
2022-11-01T18:43:23.553Z,98203.03
2022-11-01T18:46:19.164Z,98215.25
2022-11-01T18:48:37.409Z,98206.00
2022-11-01T18:51:16.125Z,98212.88
2022-11-01T18:53:42.818Z,98215.50
2022-11-01T18:56:22.715Z,98221.53
2022-11-01T18:58:52.598Z,98219.63
2022-11-01T19:01:33.336Z,98214.53
2022-11-01T19:04:22.044Z,98209.31
2022-11-01T19:06:49.188Z,98220.72
2022-11-01T19:09:24.437Z,98207.44
2022-11-01T19:12:13.773Z,98221.66
2022-11-01T19:14:41.320Z,98209.78
2022-11-01T19:17:35.659Z,98216.28
2022-11-01T19:20:02.459Z,98215.94
2022-11-01T19:22:40.619Z,98231.00
2022-11-01T19:25:20.438Z,98217.13
2022-11-01T19:27:55.688Z,98216.19
2022-11-01T19:30:32.908Z,98210.00
2022-11-01T19:33:29.903Z,98221.28
2022-11-01T19:35:58.086Z,98223.88
2022-11-01T19:38:24.850Z,98224.00
2022-11-01T19:40:53.571Z,98207.53
2022-11-01T19:43:27.245Z,98222.09
2022-11-01T19:45:57.038Z,98228.25
2022-11-01T19:48:29.682Z,98225.91
2022-11-01T19:50:56.797Z,98217.13
2022-11-01T19:53:40.103Z,98217.25
2022-11-01T19:56:11.431Z,98222.53
2022-11-01T19:58:48.792Z,98229.53
2022-11-01T20:01:31.774Z,98219.94
2022-11-01T20:04:26.008Z,98229.66
2022-11-01T20:07:21.062Z,98235.81
2022-11-01T20:09:48.556Z,98232.38
2022-11-01T20:12:20.010Z,98227.06
2022-11-01T20:14:48.706Z,98236.31
2022-11-01T20:17:15.593Z,98232.88
2022-11-01T20:19:42.348Z,98236.31
2022-11-01T20:22:09.243Z,98238.09
2022-11-01T20:24:35.994Z,98239.75
2022-11-01T20:27:02.723Z,98242.38
2022-11-01T20:29:29.461Z,98247.22
2022-11-01T20:31:56.167Z,98248.88
2022-11-01T20:34:25.498Z,98245.56
2022-11-01T20:37:22.295Z,98253.38
2022-11-01T20:39:38.950Z,98259.31
2022-11-01T20:42:07.860Z,98255.88
2022-11-01T20:44:34.561Z,98267.25
2022-11-01T20:47:01.253Z,98262.16
2022-11-01T20:49:27.939Z,98262.41
2022-11-01T20:51:57.759Z,98263.44
2022-11-01T20:54:31.115Z,98267.94
2022-11-01T20:56:57.824Z,98263.91
2022-11-01T20:59:24.661Z,98266.63
2022-11-01T21:01:51.611Z,98274.69
2022-11-01T21:04:19.266Z,98267.28
2022-11-01T21:06:46.131Z,98260.66
2022-11-01T21:09:33.672Z,98264.41
2022-11-01T21:12:00.517Z,98262.03
2022-11-01T21:14:37.796Z,98256.13
2022-11-01T21:17:17.626Z,98260.59
2022-11-01T21:19:52.119Z,98277.72
2022-11-01T21:22:20.848Z,98271.31
2022-11-01T21:24:49.723Z,98268.84
2022-11-01T21:30:12.644Z,98274.25
2022-11-01T21:32:42.588Z,98273.63
2022-11-01T21:35:37.919Z,98267.81
2022-11-01T21:38:35.339Z,98273.03
2022-11-01T21:41:23.097Z,98264.50
2022-11-01T21:43:50.535Z,98266.47
2022-11-01T21:46:21.826Z,98264.28
2022-11-01T21:48:53.919Z,98265.78
2022-11-01T21:51:20.616Z,98263.50
2022-11-01T21:53:47.331Z,98266.44
2022-11-01T21:56:14.019Z,98272.06
2022-11-01T21:58:40.937Z,98261.28
2022-11-01T22:01:08.357Z,98272.00
2022-11-01T22:03:35.121Z,98274.00
2022-11-01T22:06:01.857Z,98273.56
2022-11-01T22:08:28.547Z,98266.94
2022-11-01T22:10:55.305Z,98280.78
2022-11-01T22:13:22.060Z,98275.69
2022-11-01T22:15:48.753Z,98277.22
2022-11-01T22:18:17.203Z,98275.47
2022-11-01T22:20:45.529Z,98268.47
2022-11-01T22:23:12.248Z,98277.13
2022-11-01T22:25:38.953Z,98259.72
2022-11-01T22:28:06.953Z,98259.84
2022-11-01T22:30:33.663Z,98265.28
2022-11-01T22:33:00.561Z,98268.81
2022-11-01T22:35:27.364Z,98260.28
2022-11-01T22:37:54.321Z,98266.53
2022-11-01T22:40:21.192Z,98263.19
2022-11-01T22:42:54.885Z,98261.44
2022-11-01T22:45:21.614Z,98259.75
2022-11-01T22:47:48.666Z,98257.16
2022-11-01T22:50:27.800Z,98259.69
2022-11-01T22:52:54.516Z,98255.31
2022-11-01T22:55:27.282Z,98264.88
2022-11-01T22:58:11.050Z,98273.53
2022-11-01T23:00:39.067Z,98266.53
2022-11-01T23:03:30.413Z,98258.63
2022-11-01T23:06:21.154Z,98262.88
2022-11-01T23:08:48.301Z,98262.78
2022-11-01T23:11:42.613Z,98269.03
2022-11-01T23:14:45.436Z,98271.84
2022-11-01T23:17:28.842Z,98268.63
2022-11-01T23:20:00.016Z,98272.25
2022-11-01T23:22:35.068Z,98267.28
2022-11-01T23:25:04.356Z,98267.78
2022-11-01T23:27:31.114Z,98277.81
2022-11-01T23:30:01.829Z,98279.69
2022-11-01T23:32:30.380Z,98291.00
2022-11-01T23:35:21.875Z,98294.47
2022-11-01T23:37:51.184Z,98294.53
2022-11-01T23:40:33.372Z,98297.13
2022-11-01T23:43:00.065Z,98299.66
2022-11-01T23:45:34.651Z,98304.88
2022-11-01T23:48:02.139Z,98300.50
2022-11-01T23:50:35.307Z,98300.50
2022-11-01T23:53:09.432Z,98302.88
2022-11-01T23:55:44.089Z,98291.53
